Terminal Aerodrome Forecast
Issued by NWS Jackson, MS

Home | Current Version | Previous Version | Text Only | Print | Product List | Glossary On
Versions: 1 2 3 4 5 6 7 8 9 10 11 12 13 14
153
FTUS44 KJAN 301121
TAFHBG
TAF
KHBG 301121Z 3012/3112 23003KT P6SM SKC
     FM301300 28005KT P6SM SCT040
     FM301800 25007KT P6SM VCTS BKN050CB
     FM310100 20004KT P6SM SCT250=

USA.gov is the U.S. government's official web portal to all federal, state and local government web resources and services.